Time;durP1;ratioP1;P1;durP2;ratioP2;P2;SDS_P1;SDS_P2;PMS_P1;PMS_P2;Temp;Humidity;BMP_temperature;BMP_pressure;BME280_temperature;BME280_humidity;BME280_pressure;Samples;Min_cycle;Max_cycle;Signal;HPM_P1;HPM_P2
2022/06/30 00:02:48;;;;;;;10.07;9.07;;;;;;;;;;4953379;28;20194;-86
2022/06/30 00:05:52;;;;;;;10.13;9.10;;;;;;;;;;4945489;29;20207;-86
2022/06/30 00:08:56;;;;;;;10.70;8.97;;;;;;;;;;4923871;29;20222;-86
2022/06/30 00:12:01;;;;;;;9.70;8.60;;;;;;;;;;4948306;28;20205;-86
2022/06/30 00:15:06;;;;;;;10.50;9.40;;;;;;;;;;4942893;28;20183;-86
2022/06/30 00:18:10;;;;;;;10.30;9.27;;;;;;;;;;4953501;28;20226;-86
2022/06/30 00:21:14;;;;;;;11.37;8.97;;;;;;;;;;4944113;28;20551;-85
2022/06/30 00:24:19;;;;;;;9.17;8.30;;;;;;;;;;4955742;28;20178;-86
2022/06/30 00:27:23;;;;;;;9.20;8.30;;;;;;;;;;4944193;28;20218;-86
2022/06/30 00:30:27;;;;;;;9.70;8.13;;;;;;;;;;4944804;28;20190;-86
2022/06/30 00:33:31;;;;;;;10.57;9.10;;;;;;;;;;4955191;28;20199;-85
2022/06/30 00:36:35;;;;;;;11.60;10.50;;;;;;;;;;4944375;28;20179;-86
2022/06/30 00:39:39;;;;;;;11.47;10.23;;;;;;;;;;4955738;28;20210;-86
2022/06/30 00:42:43;;;;;;;11.83;8.97;;;;;;;;;;4955145;28;20553;-86
2022/06/30 00:45:48;;;;;;;11.57;9.83;;;;;;;;;;4954923;28;20215;-86
2022/06/30 00:48:52;;;;;;;11.27;10.17;;;;;;;;;;4954106;28;20242;-86
2022/06/30 00:52:00;;;;;;;12.90;9.17;;;;;;;;;;4954600;28;20680;-86
2022/06/30 00:55:05;;;;;;;12.43;9.37;;;;;;;;;;4943226;28;20190;-86
2022/06/30 00:58:09;;;;;;;10.07;8.57;;;;;;;;;;4968071;28;20225;-85
2022/06/30 01:01:14;;;;;;;10.17;9.10;;;;;;;;;;4957393;28;20198;-86
2022/06/30 01:04:18;;;;;;;12.10;9.00;;;;;;;;;;4947344;28;20187;-86
2022/06/30 01:07:23;;;;;;;11.63;9.60;;;;;;;;;;4957810;28;20225;-86
2022/06/30 01:13:51;;;;;;;10.03;8.40;;;;;;;;;;4943509;29;20192;-86
2022/06/30 01:16:55;;;;;;;9.40;8.23;;;;;;;;;;4940284;28;20203;-85
2022/06/30 01:20:00;;;;;;;9.67;8.73;;;;;;;;;;4949439;28;20654;-85
2022/06/30 01:23:04;;;;;;;11.13;9.93;;;;;;;;;;4970781;28;20183;-86
2022/06/30 01:26:09;;;;;;;14.10;10.70;;;;;;;;;;4957939;28;20223;-86
2022/06/30 01:29:13;;;;;;;11.63;10.43;;;;;;;;;;4957115;28;20229;-86
2022/06/30 01:32:17;;;;;;;13.93;10.43;;;;;;;;;;4945455;28;20201;-86
2022/06/30 01:35:22;;;;;;;13.87;9.37;;;;;;;;;;4967779;28;20204;-86
2022/06/30 01:38:26;;;;;;;9.77;8.77;;;;;;;;;;4966513;28;20229;-86
2022/06/30 01:41:30;;;;;;;10.20;9.10;;;;;;;;;;4936605;29;20203;-86
2022/06/30 01:44:34;;;;;;;16.87;9.33;;;;;;;;;;4944382;28;20206;-86
2022/06/30 01:47:39;;;;;;;11.40;9.40;;;;;;;;;;4965819;28;20223;-86
2022/06/30 01:50:43;;;;;;;12.60;8.40;;;;;;;;;;4955002;28;20190;-86
2022/06/30 01:53:47;;;;;;;9.87;8.40;;;;;;;;;;4928008;29;20186;-85
2022/06/30 01:56:51;;;;;;;12.53;9.20;;;;;;;;;;4932970;28;20186;-85
2022/06/30 01:59:55;;;;;;;12.40;11.10;;;;;;;;;;4958252;28;20182;-86
2022/06/30 02:02:59;;;;;;;13.73;9.77;;;;;;;;;;4958172;28;20194;-85
2022/06/30 02:06:03;;;;;;;11.10;9.60;;;;;;;;;;4958053;28;20233;-85
2022/06/30 02:09:07;;;;;;;13.20;9.87;;;;;;;;;;4947054;28;20229;-86
2022/06/30 02:15:36;;;;;;;10.40;8.17;;;;;;;;;;4958149;28;20186;-86
2022/06/30 02:18:40;;;;;;;10.23;8.50;;;;;;;;;;4957752;28;20214;-85
2022/06/30 02:21:44;;;;;;;11.57;9.27;;;;;;;;;;4968154;28;20198;-86
2022/06/30 02:24:48;;;;;;;11.37;8.60;;;;;;;;;;4945955;28;20179;-86
2022/06/30 02:27:53;;;;;;;13.90;9.27;;;;;;;;;;4956812;28;20231;-85
2022/06/30 02:30:57;;;;;;;12.60;11.30;;;;;;;;;;4955667;28;20195;-84
2022/06/30 02:34:01;;;;;;;14.63;9.80;;;;;;;;;;4937236;29;20194;-86
2022/06/30 02:37:05;;;;;;;11.27;9.53;;;;;;;;;;4937761;28;20182;-85
2022/06/30 02:40:10;;;;;;;10.53;8.93;;;;;;;;;;4926581;29;20190;-86
2022/06/30 02:43:14;;;;;;;9.93;8.93;;;;;;;;;;4947556;28;20207;-85
2022/06/30 02:46:18;;;;;;;11.27;9.63;;;;;;;;;;4937009;29;20252;-86
2022/06/30 02:49:22;;;;;;;12.60;8.43;;;;;;;;;;4926761;29;20207;-86
2022/06/30 02:52:26;;;;;;;13.93;10.77;;;;;;;;;;4937408;29;20677;-86
2022/06/30 02:55:31;;;;;;;15.53;10.37;;;;;;;;;;4938110;28;20206;-85
2022/06/30 02:58:34;;;;;;;12.10;10.00;;;;;;;;;;4955977;28;20237;-85
2022/06/30 03:01:39;;;;;;;13.73;9.70;;;;;;;;;;4957814;28;20205;-85
2022/06/30 03:04:43;;;;;;;15.97;9.23;;;;;;;;;;4955899;28;20684;-85
2022/06/30 03:07:47;;;;;;;9.97;8.80;;;;;;;;;;4945028;28;20225;-85
2022/06/30 03:10:51;;;;;;;10.27;9.27;;;;;;;;;;4944895;28;20199;-85
2022/06/30 03:13:55;;;;;;;14.27;9.67;;;;;;;;;;4955510;28;20211;-85
2022/06/30 03:17:00;;;;;;;10.60;9.50;;;;;;;;;;4967014;28;20541;-85
2022/06/30 03:20:05;;;;;;;14.73;9.33;;;;;;;;;;4944059;28;20765;-85
2022/06/30 03:23:09;;;;;;;11.07;8.57;;;;;;;;;;4955957;28;20191;-85
2022/06/30 03:26:13;;;;;;;13.80;8.77;;;;;;;;;;4945017;28;20205;-86
2022/06/30 03:29:17;;;;;;;12.17;9.20;;;;;;;;;;4944199;28;20207;-85
2022/06/30 03:32:21;;;;;;;14.00;8.90;;;;;;;;;;4955413;28;20182;-85
2022/06/30 03:35:25;;;;;;;13.03;9.20;;;;;;;;;;4955457;28;20209;-85
2022/06/30 03:38:29;;;;;;;11.47;9.70;;;;;;;;;;4954637;28;20229;-85
2022/06/30 03:41:33;;;;;;;12.30;8.50;;;;;;;;;;4944402;28;20186;-86
2022/06/30 03:44:37;;;;;;;10.00;8.20;;;;;;;;;;4955366;28;20183;-86
2022/06/30 03:47:41;;;;;;;11.00;9.00;;;;;;;;;;4944086;28;20601;-85
2022/06/30 03:50:45;;;;;;;14.20;9.53;;;;;;;;;;4954833;28;20664;-85
2022/06/30 03:53:49;;;;;;;14.00;9.67;;;;;;;;;;4955258;28;20198;-85
2022/06/30 03:56:54;;;;;;;10.87;9.83;;;;;;;;;;4944742;28;20183;-85
2022/06/30 03:59:58;;;;;;;10.83;9.23;;;;;;;;;;4936598;29;20184;-86
2022/06/30 04:03:06;;;;;;;13.13;9.73;;;;;;;;;;4935902;29;20190;-86
2022/06/30 04:06:10;;;;;;;11.80;9.17;;;;;;;;;;4935492;28;20208;-84
2022/06/30 04:09:15;;;;;;;10.70;8.57;;;;;;;;;;4955141;28;20208;-86
2022/06/30 04:12:19;;;;;;;13.23;9.77;;;;;;;;;;4944003;28;20182;-86
2022/06/30 04:15:23;;;;;;;10.67;9.33;;;;;;;;;;4943078;28;20199;-85
2022/06/30 04:18:27;;;;;;;13.03;9.40;;;;;;;;;;4943064;28;20225;-85
2022/06/30 04:21:31;;;;;;;13.17;10.40;;;;;;;;;;4943557;28;20198;-85
2022/06/30 04:24:35;;;;;;;11.67;10.23;;;;;;;;;;4955063;28;20193;-85
2022/06/30 04:27:42;;;;;;;12.20;10.90;;;;;;;;;;4943290;28;20241;-86
2022/06/30 04:34:08;;;;;;;17.27;10.50;;;;;;;;;;4953929;28;20210;-85
2022/06/30 04:37:13;;;;;;;15.93;10.27;;;;;;;;;;4955004;28;20245;-86
2022/06/30 04:43:39;;;;;;;13.30;10.87;;;;;;;;;;4965785;28;20183;-85
2022/06/30 04:46:43;;;;;;;12.87;10.43;;;;;;;;;;4954308;28;20245;-85
2022/06/30 04:49:47;;;;;;;13.90;10.23;;;;;;;;;;4973807;23;20249;-83
2022/06/30 04:52:52;;;;;;;13.37;10.03;;;;;;;;;;4945213;29;20194;-84
2022/06/30 04:55:56;;;;;;;13.50;10.13;;;;;;;;;;4967539;28;20190;-83
2022/06/30 04:59:00;;;;;;;10.73;9.67;;;;;;;;;;4925366;29;20230;-83
2022/06/30 05:02:05;;;;;;;13.33;9.40;;;;;;;;;;4914798;29;20222;-83
2022/06/30 05:05:09;;;;;;;13.00;10.27;;;;;;;;;;4914867;29;20539;-83
2022/06/30 05:08:14;;;;;;;11.07;10.07;;;;;;;;;;4925025;29;20234;-84
2022/06/30 05:11:18;;;;;;;14.93;10.40;;;;;;;;;;4925064;29;20195;-83
2022/06/30 05:14:22;;;;;;;13.43;10.37;;;;;;;;;;4896014;29;20687;-83
2022/06/30 05:17:26;;;;;;;11.93;10.27;;;;;;;;;;4925028;29;20206;-83
2022/06/30 05:20:31;;;;;;;16.40;10.50;;;;;;;;;;4919533;29;20690;-83
2022/06/30 05:23:35;;;;;;;10.10;9.10;;;;;;;;;;4906782;29;20722;-83
2022/06/30 05:26:39;;;;;;;10.53;8.67;;;;;;;;;;4907847;29;20217;-83
2022/06/30 05:29:44;;;;;;;9.70;8.30;;;;;;;;;;4913904;29;20227;-83
2022/06/30 05:32:47;;;;;;;9.83;8.10;;;;;;;;;;4924402;29;20180;-82
2022/06/30 05:35:54;;;;;;;9.67;8.67;;;;;;;;;;4913301;29;20529;-82
2022/06/30 05:38:58;;;;;;;14.90;9.10;;;;;;;;;;4921353;29;20216;-83
2022/06/30 05:42:03;;;;;;;11.07;9.23;;;;;;;;;;4913682;29;20647;-83
2022/06/30 05:45:07;;;;;;;12.80;8.60;;;;;;;;;;4902703;29;20199;-83
2022/06/30 05:48:12;;;;;;;14.17;8.27;;;;;;;;;;4915223;29;20238;-83
2022/06/30 05:51:16;;;;;;;10.93;8.07;;;;;;;;;;4921371;29;20577;-83
2022/06/30 05:54:20;;;;;;;9.97;8.07;;;;;;;;;;4921152;29;20562;-84
2022/06/30 05:57:24;;;;;;;10.03;8.37;;;;;;;;;;4941419;29;20207;-84
2022/06/30 06:00:30;;;;;;;13.30;8.23;;;;;;;;;;4921447;29;20662;-83
2022/06/30 06:03:34;;;;;;;12.57;7.70;;;;;;;;;;4914093;29;20187;-83
2022/06/30 06:06:38;;;;;;;9.07;7.40;;;;;;;;;;4935048;29;20215;-84
2022/06/30 06:09:42;;;;;;;11.27;7.77;;;;;;;;;;4915709;29;20216;-84
2022/06/30 06:12:46;;;;;;;8.33;7.20;;;;;;;;;;4921525;29;20203;-84
2022/06/30 06:15:50;;;;;;;7.83;6.17;;;;;;;;;;4918334;29;20184;-84
2022/06/30 06:18:54;;;;;;;7.90;6.90;;;;;;;;;;4928279;29;20691;-84
2022/06/30 06:22:00;;;;;;;8.93;7.10;;;;;;;;;;4912846;29;20188;-84
2022/06/30 06:25:04;;;;;;;8.30;6.83;;;;;;;;;;4912468;29;20197;-83
2022/06/30 06:31:38;;;;;;;7.50;6.13;;;;;;;;;;4930562;29;20187;-83
2022/06/30 06:34:42;;;;;;;10.50;6.07;;;;;;;;;;4930526;29;20184;-83
2022/06/30 06:37:46;;;;;;;6.33;5.73;;;;;;;;;;4930451;29;20192;-84
2022/06/30 06:40:51;;;;;;;9.23;5.70;;;;;;;;;;4897529;29;20189;-85
2022/06/30 06:43:55;;;;;;;8.23;6.30;;;;;;;;;;4916030;29;20201;-85
2022/06/30 06:46:59;;;;;;;7.67;6.30;;;;;;;;;;4908810;29;20676;-85
2022/06/30 06:50:04;;;;;;;9.33;6.33;;;;;;;;;;4898010;29;20224;-85
2022/06/30 06:53:08;;;;;;;9.13;6.97;;;;;;;;;;4905590;29;20255;-86
2022/06/30 06:56:13;;;;;;;8.57;7.00;;;;;;;;;;4916869;29;20201;-85
2022/06/30 06:59:17;;;;;;;7.63;6.87;;;;;;;;;;4897223;29;20225;-86
2022/06/30 07:02:21;;;;;;;7.73;5.83;;;;;;;;;;4921995;29;20196;-85
2022/06/30 07:05:25;;;;;;;6.60;5.93;;;;;;;;;;4927294;29;20189;-85
2022/06/30 07:08:30;;;;;;;7.30;5.60;;;;;;;;;;4916562;29;20228;-85
2022/06/30 07:11:34;;;;;;;6.03;5.13;;;;;;;;;;4925933;29;20194;-86
2022/06/30 07:14:38;;;;;;;7.30;5.47;;;;;;;;;;4927154;29;20182;-86
2022/06/30 07:17:42;;;;;;;8.90;5.50;;;;;;;;;;4927038;29;20180;-86
2022/06/30 07:20:47;;;;;;;6.87;5.07;;;;;;;;;;4917620;29;20198;-86
2022/06/30 07:23:51;;;;;;;5.37;4.87;;;;;;;;;;4930951;29;20203;-87
2022/06/30 07:26:55;;;;;;;6.30;4.17;;;;;;;;;;4914549;29;20200;-87
2022/06/30 07:29:59;;;;;;;5.43;4.40;;;;;;;;;;4926345;29;20226;-86
2022/06/30 07:33:04;;;;;;;8.43;4.80;;;;;;;;;;4916080;29;20680;-86
2022/06/30 07:36:08;;;;;;;7.90;5.10;;;;;;;;;;4915972;29;20196;-87
2022/06/30 07:39:12;;;;;;;5.35;4.00;;;;;;;;;;4916205;29;20220;-86
2022/06/30 07:42:16;;;;;;;5.60;4.97;;;;;;;;;;4914730;29;20205;-87
2022/06/30 07:45:21;;;;;;;8.63;4.30;;;;;;;;;;4915363;29;20208;-87
2022/06/30 07:48:26;;;;;;;6.43;4.43;;;;;;;;;;4896897;29;20239;-86
2022/06/30 07:51:30;;;;;;;7.50;4.05;;;;;;;;;;4912490;29;20214;-87
2022/06/30 07:54:34;;;;;;;7.63;4.15;;;;;;;;;;4925148;29;20211;-85
2022/06/30 07:57:42;;;;;;;5.20;3.72;;;;;;;;;;4896575;29;20190;-86
2022/06/30 08:00:46;;;;;;;9.30;4.10;;;;;;;;;;4896196;29;20183;-87
2022/06/30 08:03:50;;;;;;;7.38;4.03;;;;;;;;;;4908460;29;20185;-86
2022/06/30 08:06:54;;;;;;;7.22;4.07;;;;;;;;;;4925700;29;20533;-87
2022/06/30 08:09:58;;;;;;;7.72;3.60;;;;;;;;;;4914310;29;20223;-87
2022/06/30 08:13:03;;;;;;;6.60;3.58;;;;;;;;;;4925805;29;20188;-87
2022/06/30 08:16:07;;;;;;;8.15;3.80;;;;;;;;;;4914338;29;20205;-87
2022/06/30 08:19:14;;;;;;;5.00;3.90;;;;;;;;;;4908709;29;20220;-91
2022/06/30 08:22:18;;;;;;;4.85;3.85;;;;;;;;;;4925810;29;20179;-86
2022/06/30 08:25:22;;;;;;;7.00;3.47;;;;;;;;;;4916997;29;20197;-88
2022/06/30 08:28:27;;;;;;;7.07;3.90;;;;;;;;;;4917301;29;20233;-86
2022/06/30 08:31:33;;;;;;;5.97;3.28;;;;;;;;;;4929497;29;20201;-86
2022/06/30 08:34:37;;;;;;;8.77;3.60;;;;;;;;;;4917652;29;20197;-86
2022/06/30 08:37:41;;;;;;;8.85;3.60;;;;;;;;;;4908252;29;20188;-86
2022/06/30 08:44:12;;;;;;;4.75;3.72;;;;;;;;;;4923389;29;20202;-86
2022/06/30 08:47:16;;;;;;;6.55;3.72;;;;;;;;;;4914143;29;20200;-87
2022/06/30 08:50:20;;;;;;;7.32;3.83;;;;;;;;;;4905910;29;20201;-87
2022/06/30 08:53:30;;;;;;;6.28;4.55;;;;;;;;;;4896743;29;20204;-86
2022/06/30 08:56:34;;;;;;;6.35;3.67;;;;;;;;;;4905883;29;20198;-87
2022/06/30 08:59:41;;;;;;;8.35;3.90;;;;;;;;;;4905958;29;20213;-86
2022/06/30 09:02:46;;;;;;;8.27;3.65;;;;;;;;;;4913133;29;20208;-87
2022/06/30 09:05:51;;;;;;;7.28;3.97;;;;;;;;;;4921931;29;20200;-87
2022/06/30 09:08:55;;;;;;;8.02;3.55;;;;;;;;;;4905608;29;20232;-87
2022/06/30 09:11:59;;;;;;;5.72;3.63;;;;;;;;;;4921431;29;20204;-87
2022/06/30 09:15:04;;;;;;;4.45;3.40;;;;;;;;;;4911345;29;20196;-87
2022/06/30 09:18:21;;;;;;;7.95;3.70;;;;;;;;;;4912153;29;20217;-84
2022/06/30 09:21:26;;;;;;;6.78;3.88;;;;;;;;;;4894974;29;20182;-86
2022/06/30 09:24:30;;;;;;;4.95;3.67;;;;;;;;;;4924746;29;20177;-84
2022/06/30 09:27:37;;;;;;;8.52;3.92;;;;;;;;;;4903029;29;20180;-84
2022/06/30 09:30:41;;;;;;;5.85;4.07;;;;;;;;;;4913155;29;20192;-86
2022/06/30 09:33:45;;;;;;;8.70;3.70;;;;;;;;;;4908433;29;20197;-87
2022/06/30 09:36:51;;;;;;;6.95;3.97;;;;;;;;;;4905246;29;20200;-87
2022/06/30 09:39:57;;;;;;;5.13;3.70;;;;;;;;;;4905473;29;20263;-87
2022/06/30 09:43:03;;;;;;;4.10;3.38;;;;;;;;;;4906710;29;20191;-85
2022/06/30 09:46:08;;;;;;;6.43;4.00;;;;;;;;;;4913507;29;20189;-85
2022/06/30 09:49:28;;;;;;;7.43;3.63;;;;;;;;;;4906572;29;20232;-84
2022/06/30 09:52:33;;;;;;;5.20;3.70;;;;;;;;;;4905083;29;20197;-85
2022/06/30 09:55:42;;;;;;;8.60;4.10;;;;;;;;;;4935332;29;20188;-84
2022/06/30 09:58:46;;;;;;;4.88;3.72;;;;;;;;;;4924661;29;20220;-84
2022/06/30 10:01:52;;;;;;;4.03;2.97;;;;;;;;;;4894950;29;20185;-84
2022/06/30 10:04:58;;;;;;;6.53;3.92;;;;;;;;;;4905183;29;20189;-84
2022/06/30 10:08:03;;;;;;;8.45;3.72;;;;;;;;;;4916023;29;20641;-84
2022/06/30 10:11:07;;;;;;;6.13;3.58;;;;;;;;;;4935050;29;20196;-85
2022/06/30 10:14:14;;;;;;;5.97;3.50;;;;;;;;;;4910013;29;20200;-85
2022/06/30 10:17:21;;;;;;;5.22;3.63;;;;;;;;;;4916400;29;20192;-86
2022/06/30 10:20:27;;;;;;;6.82;3.80;;;;;;;;;;4926980;29;20201;-85
2022/06/30 10:23:32;;;;;;;4.85;3.92;;;;;;;;;;4906972;29;20193;-84
2022/06/30 10:30:03;;;;;;;4.50;3.10;;;;;;;;;;4898036;29;20233;-84
2022/06/30 10:33:29;;;;;;;5.43;3.38;;;;;;;;;;4917857;29;20189;-84
2022/06/30 10:36:46;;;;;;;6.22;3.42;;;;;;;;;;4898336;29;20197;-84
2022/06/30 10:40:03;;;;;;;6.05;3.85;;;;;;;;;;4908366;29;20213;-84
2022/06/30 10:43:07;;;;;;;4.68;3.13;;;;;;;;;;4928823;29;20193;-85
2022/06/30 10:46:11;;;;;;;8.75;3.38;;;;;;;;;;4911198;29;20203;-84
2022/06/30 10:49:24;;;;;;;5.40;3.00;;;;;;;;;;4949648;23;20236;-76
2022/06/30 10:52:30;;;;;;;5.72;2.75;;;;;;;;;;4926438;29;20228;-77
2022/06/30 10:55:49;;;;;;;6.65;3.63;;;;;;;;;;4908776;29;20196;-78
2022/06/30 10:59:07;;;;;;;5.35;3.65;;;;;;;;;;4907841;29;20691;-77
2022/06/30 11:02:11;;;;;;;6.82;3.10;;;;;;;;;;4926872;29;20564;-76
2022/06/30 11:05:24;;;;;;;8.75;3.67;;;;;;;;;;4940221;29;20188;-76
2022/06/30 11:11:54;;;;;;;11.63;3.58;;;;;;;;;;4940460;29;20224;-77
2022/06/30 11:14:59;;;;;;;6.15;3.15;;;;;;;;;;4938388;29;20200;-77
2022/06/30 11:18:03;;;;;;;5.65;3.30;;;;;;;;;;4919488;29;20181;-76
2022/06/30 11:21:07;;;;;;;11.05;3.30;;;;;;;;;;4896895;29;20216;-77
2022/06/30 11:24:15;;;;;;;5.60;3.28;;;;;;;;;;4896720;29;20198;-76
2022/06/30 11:27:21;;;;;;;9.02;3.60;;;;;;;;;;4919153;29;20189;-77
2022/06/30 11:30:31;;;;;;;6.72;3.45;;;;;;;;;;4897170;29;20182;-77
2022/06/30 11:33:53;;;;;;;5.55;3.42;;;;;;;;;;4919329;29;20193;-77
2022/06/30 11:36:58;;;;;;;6.85;3.20;;;;;;;;;;4918758;29;20186;-76
2022/06/30 11:40:06;;;;;;;4.97;3.30;;;;;;;;;;4906836;29;20225;-76
2022/06/30 11:43:21;;;;;;;5.80;3.30;;;;;;;;;;4918951;29;20660;-77
2022/06/30 11:46:25;;;;;;;6.07;3.30;;;;;;;;;;4907241;29;20629;-77
2022/06/30 11:50:00;;;;;;;6.35;3.08;;;;;;;;;;4918631;29;20625;-77
2022/06/30 11:53:05;;;;;;;5.57;2.90;;;;;;;;;;4943886;29;20522;-76
2022/06/30 11:56:09;;;;;;;8.20;3.15;;;;;;;;;;4929492;29;20192;-76
2022/06/30 11:59:14;;;;;;;4.90;3.13;;;;;;;;;;4937169;29;20216;-76
2022/06/30 12:02:19;;;;;;;6.03;2.80;;;;;;;;;;4925720;29;20220;-76
2022/06/30 12:05:27;;;;;;;5.85;2.50;;;;;;;;;;4925737;29;20196;-76
2022/06/30 12:08:31;;;;;;;6.20;3.20;;;;;;;;;;4937402;29;20204;-76
2022/06/30 12:11:37;;;;;;;5.75;2.75;;;;;;;;;;4948434;29;20227;-76
2022/06/30 12:14:41;;;;;;;5.00;2.88;;;;;;;;;;4938134;29;20671;-77
2022/06/30 12:17:53;;;;;;;6.93;2.92;;;;;;;;;;4926152;29;20655;-77
2022/06/30 12:20:57;;;;;;;8.18;2.65;;;;;;;;;;4937296;29;20208;-76
2022/06/30 12:24:02;;;;;;;4.85;2.60;;;;;;;;;;4936397;29;20189;-77
2022/06/30 12:27:06;;;;;;;7.25;3.30;;;;;;;;;;4915194;29;20192;-77
2022/06/30 12:30:16;;;;;;;6.50;2.88;;;;;;;;;;4910223;29;20192;-76
2022/06/30 12:33:20;;;;;;;8.35;2.75;;;;;;;;;;4915252;29;20197;-77
2022/06/30 12:36:30;;;;;;;7.25;2.90;;;;;;;;;;4924698;29;20176;-76
2022/06/30 12:39:44;;;;;;;5.18;2.55;;;;;;;;;;4937955;29;20213;-76
2022/06/30 12:42:51;;;;;;;6.35;2.67;;;;;;;;;;4928950;29;20571;-77
2022/06/30 12:45:56;;;;;;;3.35;2.58;;;;;;;;;;4917992;29;20544;-77
2022/06/30 12:49:00;;;;;;;5.20;2.75;;;;;;;;;;4944588;29;20184;-76
2022/06/30 12:52:17;;;;;;;5.78;2.65;;;;;;;;;;4925386;29;20227;-76
2022/06/30 12:55:21;;;;;;;4.20;2.60;;;;;;;;;;4945413;29;20196;-76
2022/06/30 12:58:25;;;;;;;4.65;2.78;;;;;;;;;;4955261;29;20176;-76
2022/06/30 13:01:32;;;;;;;7.60;2.65;;;;;;;;;;4937548;29;20559;-77
2022/06/30 13:04:37;;;;;;;4.53;2.70;;;;;;;;;;4943374;29;20192;-76
2022/06/30 13:07:41;;;;;;;5.38;2.70;;;;;;;;;;4911839;29;20193;-76
2022/06/30 13:14:07;;;;;;;8.52;2.75;;;;;;;;;;4948735;29;20548;-76
2022/06/30 13:17:12;;;;;;;7.13;2.72;;;;;;;;;;4924574;29;20188;-76
2022/06/30 13:20:16;;;;;;;4.35;2.80;;;;;;;;;;4914431;29;20200;-76
2022/06/30 13:23:21;;;;;;;5.95;2.58;;;;;;;;;;4937169;29;20188;-77
2022/06/30 13:26:26;;;;;;;5.65;2.80;;;;;;;;;;4943727;29;20193;-76
2022/06/30 13:29:35;;;;;;;6.30;2.88;;;;;;;;;;4913723;29;20632;-76
2022/06/30 13:32:39;;;;;;;7.05;2.67;;;;;;;;;;4936039;29;20224;-76
2022/06/30 13:35:43;;;;;;;8.35;3.17;;;;;;;;;;4930513;29;20187;-76
2022/06/30 13:38:48;;;;;;;7.90;2.70;;;;;;;;;;4942663;29;20200;-76
2022/06/30 13:41:52;;;;;;;6.50;2.88;;;;;;;;;;4919448;29;20224;-76
2022/06/30 13:44:55;;;;;;;6.45;2.97;;;;;;;;;;4918272;29;20192;-76
2022/06/30 13:47:59;;;;;;;5.30;2.70;;;;;;;;;;4903481;29;20209;-76
2022/06/30 13:51:04;;;;;;;5.68;2.75;;;;;;;;;;4908606;29;20228;-76
2022/06/30 13:54:07;;;;;;;3.65;2.25;;;;;;;;;;4909099;29;20185;-76
2022/06/30 13:57:11;;;;;;;6.60;2.80;;;;;;;;;;4937941;29;20200;-76
2022/06/30 14:00:16;;;;;;;6.63;2.72;;;;;;;;;;4934542;29;20223;-76
2022/06/30 14:03:20;;;;;;;6.88;2.90;;;;;;;;;;4947080;29;20200;-76
2022/06/30 14:06:25;;;;;;;5.90;2.90;;;;;;;;;;4926549;29;20197;-76
2022/06/30 14:09:31;;;;;;;3.22;2.50;;;;;;;;;;4943565;29;20188;-76
2022/06/30 14:12:35;;;;;;;9.32;3.15;;;;;;;;;;4908441;29;20228;-76
2022/06/30 14:15:38;;;;;;;7.60;2.97;;;;;;;;;;4928532;29;20642;-78
2022/06/30 14:18:42;;;;;;;4.13;2.65;;;;;;;;;;4931480;29;20679;-76
2022/06/30 14:21:46;;;;;;;4.75;2.55;;;;;;;;;;4924505;29;20208;-77
2022/06/30 14:24:51;;;;;;;6.45;2.70;;;;;;;;;;4922681;29;20181;-76
2022/06/30 14:27:55;;;;;;;6.55;2.55;;;;;;;;;;4911143;29;20644;-76
2022/06/30 14:30:59;;;;;;;4.22;2.20;;;;;;;;;;4946695;29;20220;-76
2022/06/30 14:34:03;;;;;;;6.03;2.88;;;;;;;;;;4938501;29;20646;-77
2022/06/30 14:37:10;;;;;;;5.90;2.95;;;;;;;;;;4948566;29;20203;-77
2022/06/30 14:40:16;;;;;;;6.32;2.55;;;;;;;;;;4936902;29;20690;-77
2022/06/30 14:43:21;;;;;;;6.57;2.75;;;;;;;;;;4958270;29;20176;-81
2022/06/30 14:46:25;;;;;;;6.72;2.58;;;;;;;;;;4957645;29;20176;-80
2022/06/30 14:49:29;;;;;;;5.10;2.75;;;;;;;;;;4969813;29;20504;-81
2022/06/30 14:52:35;;;;;;;18.35;3.50;;;;;;;;;;4946554;29;20219;-81
2022/06/30 14:55:39;;;;;;;6.93;2.70;;;;;;;;;;4947082;29;20188;-81
2022/06/30 14:58:43;;;;;;;5.10;2.75;;;;;;;;;;4935947;29;20539;-80
2022/06/30 15:01:48;;;;;;;11.13;3.22;;;;;;;;;;4943119;29;20211;-79
2022/06/30 15:04:52;;;;;;;8.35;3.08;;;;;;;;;;4955577;29;20189;-79
2022/06/30 15:07:56;;;;;;;6.72;2.90;;;;;;;;;;4949925;29;20172;-78
2022/06/30 15:11:01;;;;;;;5.15;2.70;;;;;;;;;;4954499;29;20215;-80
2022/06/30 15:14:05;;;;;;;8.90;3.50;;;;;;;;;;4968006;29;20176;-79
2022/06/30 15:17:10;;;;;;;7.78;2.90;;;;;;;;;;4943176;29;20508;-77
2022/06/30 15:20:15;;;;;;;4.43;2.92;;;;;;;;;;4929326;29;20232;-77
2022/06/30 15:26:42;;;;;;;14.02;3.22;;;;;;;;;;4963430;29;20183;-77
2022/06/30 15:29:49;;;;;;;6.55;2.63;;;;;;;;;;4951237;29;20582;-77
2022/06/30 15:32:54;;;;;;;10.07;2.67;;;;;;;;;;4928116;29;20643;-77
2022/06/30 15:35:58;;;;;;;8.70;2.80;;;;;;;;;;4950409;29;20180;-77
2022/06/30 15:39:04;;;;;;;5.63;2.95;;;;;;;;;;4965090;29;20181;-77
2022/06/30 15:42:13;;;;;;;4.55;3.00;;;;;;;;;;4942391;29;20219;-77
2022/06/30 15:45:22;;;;;;;38.63;13.00;;;;;;;;;;4942452;29;20199;-77
2022/06/30 15:48:27;;;;;;;6.63;3.25;;;;;;;;;;4950774;29;20211;-77
2022/06/30 15:51:31;;;;;;;6.85;3.13;;;;;;;;;;4959564;29;20699;-77
2022/06/30 15:54:37;;;;;;;5.90;2.70;;;;;;;;;;4940311;29;20192;-77
2022/06/30 15:57:41;;;;;;;7.90;3.50;;;;;;;;;;4949949;29;20630;-77
2022/06/30 16:00:45;;;;;;;5.25;2.85;;;;;;;;;;4949509;29;20579;-77
2022/06/30 16:03:50;;;;;;;5.63;2.92;;;;;;;;;;4960358;29;20190;-77
2022/06/30 16:06:54;;;;;;;10.02;3.40;;;;;;;;;;4949455;29;20191;-77
2022/06/30 16:09:58;;;;;;;6.60;2.83;;;;;;;;;;4938828;29;20181;-77
2022/06/30 16:13:02;;;;;;;5.47;2.83;;;;;;;;;;4938360;29;20187;-77
2022/06/30 16:16:07;;;;;;;9.45;2.88;;;;;;;;;;4927986;29;20188;-77
2022/06/30 16:19:11;;;;;;;8.40;3.45;;;;;;;;;;4938217;29;20660;-77
2022/06/30 16:22:15;;;;;;;7.18;3.28;;;;;;;;;;4947530;29;20689;-77
2022/06/30 16:25:19;;;;;;;8.55;3.38;;;;;;;;;;4947457;29;20190;-77
2022/06/30 16:28:23;;;;;;;5.80;3.33;;;;;;;;;;4947925;29;20190;-77
2022/06/30 16:31:28;;;;;;;3.88;2.88;;;;;;;;;;4958848;29;20226;-77
2022/06/30 16:34:32;;;;;;;10.95;3.25;;;;;;;;;;4934619;29;20184;-77
2022/06/30 16:37:36;;;;;;;7.43;3.40;;;;;;;;;;4945697;29;20198;-77
2022/06/30 16:40:44;;;;;;;7.55;2.95;;;;;;;;;;4935462;29;20233;-79
2022/06/30 16:43:48;;;;;;;7.65;3.40;;;;;;;;;;4945308;29;20229;-79
2022/06/30 16:46:52;;;;;;;11.05;3.70;;;;;;;;;;4946068;29;20181;-79
2022/06/30 16:50:07;;;;;;;7.65;4.53;;;;;;;;;;4934452;28;20205;-76
2022/06/30 16:53:12;;;;;;;9.07;3.47;;;;;;;;;;4928331;29;20222;-81
2022/06/30 16:56:16;;;;;;;9.32;3.58;;;;;;;;;;4906717;29;20514;-81
2022/06/30 16:59:20;;;;;;;6.78;3.80;;;;;;;;;;4928639;29;20633;-81
2022/06/30 17:02:24;;;;;;;5.13;3.55;;;;;;;;;;4908098;29;20210;-82
2022/06/30 17:05:29;;;;;;;6.38;3.05;;;;;;;;;;4918102;29;20210;-81
2022/06/30 17:08:33;;;;;;;6.05;3.38;;;;;;;;;;4918716;29;20190;-81
2022/06/30 17:11:37;;;;;;;4.82;3.03;;;;;;;;;;4906747;29;20560;-81
2022/06/30 17:14:41;;;;;;;9.88;3.53;;;;;;;;;;4928552;29;20189;-81
2022/06/30 17:17:45;;;;;;;7.25;3.42;;;;;;;;;;4919314;29;20201;-81
2022/06/30 17:20:49;;;;;;;8.55;3.70;;;;;;;;;;4920929;29;20714;-78
2022/06/30 17:23:54;;;;;;;4.88;3.30;;;;;;;;;;4919240;29;20211;-82
2022/06/30 17:26:58;;;;;;;9.38;3.25;;;;;;;;;;4942613;29;20662;-82
2022/06/30 17:30:03;;;;;;;5.70;3.63;;;;;;;;;;4930630;29;20181;-81
2022/06/30 17:33:08;;;;;;;7.07;3.60;;;;;;;;;;4930592;29;20183;-82
2022/06/30 17:36:13;;;;;;;4.35;3.35;;;;;;;;;;4930245;29;20185;-82
2022/06/30 17:39:17;;;;;;;6.35;3.67;;;;;;;;;;4907498;29;20185;-82
2022/06/30 17:42:21;;;;;;;5.82;3.67;;;;;;;;;;4907333;29;20213;-81
2022/06/30 17:45:25;;;;;;;8.02;3.75;;;;;;;;;;4917248;29;20187;-81
2022/06/30 17:48:30;;;;;;;6.70;3.60;;;;;;;;;;4918042;29;20200;-82
2022/06/30 17:51:34;;;;;;;11.88;4.45;;;;;;;;;;4917381;29;20696;-82
2022/06/30 17:54:39;;;;;;;6.40;3.90;;;;;;;;;;4928569;29;20225;-82
2022/06/30 17:57:42;;;;;;;7.05;3.67;;;;;;;;;;4928773;29;20571;-81
2022/06/30 18:00:48;;;;;;;8.25;4.35;;;;;;;;;;4905304;29;20232;-81
2022/06/30 18:03:52;;;;;;;8.23;4.25;;;;;;;;;;4916490;29;20256;-81
2022/06/30 18:13:51;;;;;;;12.77;4.25;;;;;;;;;;4927388;29;20188;-81
2022/06/30 18:16:55;;;;;;;10.48;4.45;;;;;;;;;;4927360;29;20202;-81
2022/06/30 18:19:59;;;;;;;10.30;4.30;;;;;;;;;;4905439;29;20553;-81
2022/06/30 18:23:04;;;;;;;7.82;4.45;;;;;;;;;;4916219;29;20208;-81
2022/06/30 18:26:11;;;;;;;7.68;4.60;;;;;;;;;;4926984;29;20200;-81
2022/06/30 18:29:15;;;;;;;8.40;4.20;;;;;;;;;;4915487;29;20178;-81
2022/06/30 18:32:20;;;;;;;7.47;4.88;;;;;;;;;;4926689;29;20212;-81
2022/06/30 18:35:25;;;;;;;5.85;4.35;;;;;;;;;;4918021;29;20656;-81
2022/06/30 18:38:29;;;;;;;7.03;4.53;;;;;;;;;;4929620;29;20188;-82
2022/06/30 18:41:34;;;;;;;7.10;5.20;;;;;;;;;;4930061;29;20240;-81
2022/06/30 18:44:38;;;;;;;10.07;4.57;;;;;;;;;;4918904;29;20180;-81
2022/06/30 18:47:42;;;;;;;7.60;4.80;;;;;;;;;;4919007;29;20211;-81
2022/06/30 18:50:46;;;;;;;9.73;5.07;;;;;;;;;;4918946;29;20225;-81
2022/06/30 18:53:51;;;;;;;16.60;5.47;;;;;;;;;;4907006;29;20657;-81
2022/06/30 18:56:55;;;;;;;5.93;4.50;;;;;;;;;;4907315;29;20674;-81
2022/06/30 19:00:00;;;;;;;7.13;4.87;;;;;;;;;;4929095;29;20188;-81
2022/06/30 19:03:04;;;;;;;7.57;4.80;;;;;;;;;;4928108;29;20176;-81
2022/06/30 19:06:10;;;;;;;8.57;5.50;;;;;;;;;;4907160;29;20185;-80